sensor_id;sensor_type;location;lat;lon;timestamp;P1;durP1;ratioP1;P2;durP2;ratioP2
49840;SDS011;35738;49.890;5.930;2023-12-20T00:01:48;3.23;;;2.93;;
49840;SDS011;35738;49.890;5.930;2023-12-20T00:04:15;4.63;;;2.90;;
49840;SDS011;35738;49.890;5.930;2023-12-20T00:06:42;4.40;;;3.30;;
49840;SDS011;35738;49.890;5.930;2023-12-20T00:09:08;3.80;;;3.13;;
49840;SDS011;35738;49.890;5.930;2023-12-20T00:11:34;3.47;;;3.03;;
49840;SDS011;35738;49.890;5.930;2023-12-20T00:14:01;3.80;;;3.20;;
49840;SDS011;35738;49.890;5.930;2023-12-20T00:16:27;4.07;;;3.40;;
49840;SDS011;35738;49.890;5.930;2023-12-20T00:18:53;4.17;;;3.37;;
49840;SDS011;35738;49.890;5.930;2023-12-20T00:21:20;4.07;;;3.43;;
49840;SDS011;35738;49.890;5.930;2023-12-20T00:23:46;7.33;;;3.90;;
49840;SDS011;35738;49.890;5.930;2023-12-20T00:26:13;36.20;;;5.13;;
49840;SDS011;35738;49.890;5.930;2023-12-20T00:28:39;25.57;;;5.10;;
49840;SDS011;35738;49.890;5.930;2023-12-20T00:31:05;30.80;;;5.47;;
49840;SDS011;35738;49.890;5.930;2023-12-20T00:33:32;169.60;;;11.13;;
49840;SDS011;35738;49.890;5.930;2023-12-20T00:35:58;85.05;;;7.65;;
49840;SDS011;35738;49.890;5.930;2023-12-20T00:38:25;80.37;;;8.60;;
49840;SDS011;35738;49.890;5.930;2023-12-20T00:40:51;166.77;;;11.80;;
49840;SDS011;35738;49.890;5.930;2023-12-20T00:43:17;292.27;;;16.95;;
49840;SDS011;35738;49.890;5.930;2023-12-20T00:45:44;62.28;;;7.57;;
49840;SDS011;35738;49.890;5.930;2023-12-20T00:48:11;30.40;;;6.20;;
49840;SDS011;35738;49.890;5.930;2023-12-20T00:50:37;121.38;;;10.13;;
49840;SDS011;35738;49.890;5.930;2023-12-20T00:53:04;94.53;;;9.75;;
49840;SDS011;35738;49.890;5.930;2023-12-20T00:55:30;322.92;;;19.08;;
49840;SDS011;35738;49.890;5.930;2023-12-20T00:57:56;57.77;;;7.33;;
49840;SDS011;35738;49.890;5.930;2023-12-20T01:00:23;162.47;;;11.10;;
49840;SDS011;35738;49.890;5.930;2023-12-20T01:02:49;103.17;;;9.43;;
49840;SDS011;35738;49.890;5.930;2023-12-20T01:05:17;18.27;;;5.53;;
49840;SDS011;35738;49.890;5.930;2023-12-20T01:07:44;66.90;;;8.90;;
49840;SDS011;35738;49.890;5.930;2023-12-20T01:10:10;48.33;;;7.87;;
49840;SDS011;35738;49.890;5.930;2023-12-20T01:12:37;77.15;;;9.23;;
49840;SDS011;35738;49.890;5.930;2023-12-20T01:15:04;43.93;;;7.63;;
49840;SDS011;35738;49.890;5.930;2023-12-20T01:17:30;22.57;;;6.87;;
49840;SDS011;35738;49.890;5.930;2023-12-20T01:19:57;60.97;;;9.02;;
49840;SDS011;35738;49.890;5.930;2023-12-20T01:22:24;131.27;;;11.80;;
49840;SDS011;35738;49.890;5.930;2023-12-20T01:24:50;200.27;;;14.88;;
49840;SDS011;35738;49.890;5.930;2023-12-20T01:27:17;104.13;;;11.25;;
49840;SDS011;35738;49.890;5.930;2023-12-20T01:29:43;113.95;;;11.10;;
49840;SDS011;35738;49.890;5.930;2023-12-20T01:32:10;26.37;;;7.73;;
49840;SDS011;35738;49.890;5.930;2023-12-20T01:34:36;22.47;;;7.27;;
49840;SDS011;35738;49.890;5.930;2023-12-20T01:37:03;96.40;;;11.23;;
49840;SDS011;35738;49.890;5.930;2023-12-20T01:39:30;33.70;;;7.60;;
49840;SDS011;35738;49.890;5.930;2023-12-20T01:41:56;12.45;;;6.22;;
49840;SDS011;35738;49.890;5.930;2023-12-20T01:44:23;51.55;;;8.30;;
49840;SDS011;35738;49.890;5.930;2023-12-20T01:46:49;24.53;;;6.87;;
49840;SDS011;35738;49.890;5.930;2023-12-20T01:49:15;21.30;;;6.68;;
49840;SDS011;35738;49.890;5.930;2023-12-20T01:51:42;38.03;;;7.30;;
49840;SDS011;35738;49.890;5.930;2023-12-20T01:54:09;315.80;;;19.50;;
49840;SDS011;35738;49.890;5.930;2023-12-20T01:56:36;276.23;;;15.73;;
49840;SDS011;35738;49.890;5.930;2023-12-20T01:59:02;24.40;;;7.10;;
49840;SDS011;35738;49.890;5.930;2023-12-20T02:01:31;10.30;;;5.53;;
49840;SDS011;35738;49.890;5.930;2023-12-20T02:03:58;7.63;;;4.75;;
49840;SDS011;35738;49.890;5.930;2023-12-20T02:06:25;8.95;;;4.80;;
49840;SDS011;35738;49.890;5.930;2023-12-20T02:08:55;10.18;;;4.82;;
49840;SDS011;35738;49.890;5.930;2023-12-20T02:11:22;13.35;;;4.32;;
49840;SDS011;35738;49.890;5.930;2023-12-20T02:13:48;9.88;;;4.43;;
49840;SDS011;35738;49.890;5.930;2023-12-20T02:16:14;9.00;;;4.88;;
49840;SDS011;35738;49.890;5.930;2023-12-20T02:18:42;11.07;;;5.13;;
49840;SDS011;35738;49.890;5.930;2023-12-20T02:21:09;6.50;;;4.30;;
49840;SDS011;35738;49.890;5.930;2023-12-20T02:23:36;10.07;;;4.83;;
49840;SDS011;35738;49.890;5.930;2023-12-20T02:26:03;8.73;;;4.57;;
49840;SDS011;35738;49.890;5.930;2023-12-20T02:28:30;10.70;;;4.00;;
49840;SDS011;35738;49.890;5.930;2023-12-20T02:30:59;8.53;;;4.20;;
49840;SDS011;35738;49.890;5.930;2023-12-20T02:33:27;9.43;;;4.37;;
49840;SDS011;35738;49.890;5.930;2023-12-20T02:35:53;13.50;;;4.43;;
49840;SDS011;35738;49.890;5.930;2023-12-20T02:38:20;11.87;;;3.93;;
49840;SDS011;35738;49.890;5.930;2023-12-20T02:40:46;9.93;;;3.77;;
49840;SDS011;35738;49.890;5.930;2023-12-20T02:43:15;13.57;;;4.13;;
49840;SDS011;35738;49.890;5.930;2023-12-20T02:45:42;13.63;;;3.40;;
49840;SDS011;35738;49.890;5.930;2023-12-20T02:48:09;9.97;;;3.73;;
49840;SDS011;35738;49.890;5.930;2023-12-20T02:50:35;9.33;;;3.50;;
49840;SDS011;35738;49.890;5.930;2023-12-20T02:53:01;10.57;;;3.30;;
49840;SDS011;35738;49.890;5.930;2023-12-20T02:55:28;12.57;;;3.73;;
49840;SDS011;35738;49.890;5.930;2023-12-20T02:57:54;11.23;;;3.60;;
49840;SDS011;35738;49.890;5.930;2023-12-20T03:00:21;10.80;;;3.90;;
49840;SDS011;35738;49.890;5.930;2023-12-20T03:02:48;11.63;;;3.83;;
49840;SDS011;35738;49.890;5.930;2023-12-20T03:05:14;11.27;;;3.67;;
49840;SDS011;35738;49.890;5.930;2023-12-20T03:07:40;11.37;;;3.83;;
49840;SDS011;35738;49.890;5.930;2023-12-20T03:10:07;6.27;;;3.07;;
49840;SDS011;35738;49.890;5.930;2023-12-20T03:12:45;10.43;;;3.00;;
49840;SDS011;35738;49.890;5.930;2023-12-20T03:15:12;10.60;;;3.20;;
49840;SDS011;35738;49.890;5.930;2023-12-20T03:17:38;7.80;;;3.00;;
49840;SDS011;35738;49.890;5.930;2023-12-20T03:20:05;11.87;;;3.13;;
49840;SDS011;35738;49.890;5.930;2023-12-20T03:22:31;14.50;;;3.20;;
49840;SDS011;35738;49.890;5.930;2023-12-20T03:24:58;10.57;;;3.30;;
49840;SDS011;35738;49.890;5.930;2023-12-20T03:27:24;7.90;;;3.13;;
49840;SDS011;35738;49.890;5.930;2023-12-20T03:29:50;16.60;;;3.60;;
49840;SDS011;35738;49.890;5.930;2023-12-20T03:32:17;10.70;;;3.10;;
49840;SDS011;35738;49.890;5.930;2023-12-20T03:34:43;14.33;;;3.10;;
49840;SDS011;35738;49.890;5.930;2023-12-20T03:37:10;9.37;;;3.07;;
49840;SDS011;35738;49.890;5.930;2023-12-20T03:39:36;9.53;;;3.17;;
49840;SDS011;35738;49.890;5.930;2023-12-20T03:42:03;10.90;;;3.10;;
49840;SDS011;35738;49.890;5.930;2023-12-20T03:44:29;11.27;;;3.00;;
49840;SDS011;35738;49.890;5.930;2023-12-20T03:46:55;10.20;;;3.20;;
49840;SDS011;35738;49.890;5.930;2023-12-20T03:49:22;7.97;;;3.27;;
49840;SDS011;35738;49.890;5.930;2023-12-20T03:51:48;13.60;;;3.67;;
49840;SDS011;35738;49.890;5.930;2023-12-20T03:54:15;11.83;;;3.43;;
49840;SDS011;35738;49.890;5.930;2023-12-20T03:56:41;14.73;;;4.13;;
49840;SDS011;35738;49.890;5.930;2023-12-20T03:59:08;13.05;;;3.55;;
49840;SDS011;35738;49.890;5.930;2023-12-20T04:01:37;7.27;;;3.43;;
49840;SDS011;35738;49.890;5.930;2023-12-20T04:04:04;10.63;;;3.63;;
49840;SDS011;35738;49.890;5.930;2023-12-20T04:06:31;12.50;;;3.87;;
49840;SDS011;35738;49.890;5.930;2023-12-20T04:08:58;18.90;;;4.30;;
49840;SDS011;35738;49.890;5.930;2023-12-20T04:11:25;12.33;;;4.00;;
49840;SDS011;35738;49.890;5.930;2023-12-20T04:13:51;12.63;;;4.13;;
49840;SDS011;35738;49.890;5.930;2023-12-20T04:16:19;14.30;;;4.53;;
49840;SDS011;35738;49.890;5.930;2023-12-20T04:18:46;13.60;;;4.67;;
49840;SDS011;35738;49.890;5.930;2023-12-20T04:21:12;11.43;;;4.50;;
49840;SDS011;35738;49.890;5.930;2023-12-20T04:23:43;18.67;;;5.37;;
49840;SDS011;35738;49.890;5.930;2023-12-20T04:26:17;14.17;;;5.47;;
49840;SDS011;35738;49.890;5.930;2023-12-20T04:28:47;17.47;;;5.17;;
49840;SDS011;35738;49.890;5.930;2023-12-20T04:31:14;19.13;;;5.30;;
49840;SDS011;35738;49.890;5.930;2023-12-20T04:33:41;15.47;;;5.60;;
49840;SDS011;35738;49.890;5.930;2023-12-20T04:36:13;16.60;;;6.00;;
49840;SDS011;35738;49.890;5.930;2023-12-20T04:38:44;18.50;;;5.73;;
49840;SDS011;35738;49.890;5.930;2023-12-20T04:41:24;17.80;;;5.50;;
49840;SDS011;35738;49.890;5.930;2023-12-20T04:43:51;19.83;;;5.87;;
49840;SDS011;35738;49.890;5.930;2023-12-20T04:46:17;16.20;;;5.57;;
49840;SDS011;35738;49.890;5.930;2023-12-20T04:48:45;17.50;;;5.70;;
49840;SDS011;35738;49.890;5.930;2023-12-20T04:51:15;15.33;;;6.17;;
49840;SDS011;35738;49.890;5.930;2023-12-20T04:53:42;16.67;;;5.60;;
49840;SDS011;35738;49.890;5.930;2023-12-20T04:56:08;11.30;;;5.60;;
49840;SDS011;35738;49.890;5.930;2023-12-20T04:58:34;18.97;;;5.67;;
49840;SDS011;35738;49.890;5.930;2023-12-20T05:01:01;15.70;;;5.33;;
49840;SDS011;35738;49.890;5.930;2023-12-20T05:03:28;11.10;;;5.35;;
49840;SDS011;35738;49.890;5.930;2023-12-20T05:05:55;12.33;;;5.40;;
49840;SDS011;35738;49.890;5.930;2023-12-20T05:08:21;19.60;;;6.07;;
49840;SDS011;35738;49.890;5.930;2023-12-20T05:10:47;19.60;;;5.90;;
49840;SDS011;35738;49.890;5.930;2023-12-20T05:13:14;14.60;;;5.70;;
49840;SDS011;35738;49.890;5.930;2023-12-20T05:15:40;19.27;;;8.67;;
49840;SDS011;35738;49.890;5.930;2023-12-20T05:18:07;22.83;;;9.47;;
49840;SDS011;35738;49.890;5.930;2023-12-20T05:20:33;15.75;;;5.70;;
49840;SDS011;35738;49.890;5.930;2023-12-20T05:23:00;13.40;;;5.43;;
49840;SDS011;35738;49.890;5.930;2023-12-20T05:25:26;17.43;;;5.90;;
49840;SDS011;35738;49.890;5.930;2023-12-20T05:27:53;21.37;;;5.70;;
49840;SDS011;35738;49.890;5.930;2023-12-20T05:30:20;16.50;;;5.97;;
49840;SDS011;35738;49.890;5.930;2023-12-20T05:32:46;16.07;;;5.60;;
49840;SDS011;35738;49.890;5.930;2023-12-20T05:35:13;18.97;;;5.00;;
49840;SDS011;35738;49.890;5.930;2023-12-20T05:37:39;18.33;;;5.57;;
49840;SDS011;35738;49.890;5.930;2023-12-20T05:40:09;16.73;;;5.60;;
49840;SDS011;35738;49.890;5.930;2023-12-20T05:42:36;12.93;;;5.07;;
49840;SDS011;35738;49.890;5.930;2023-12-20T05:45:04;23.47;;;7.17;;
49840;SDS011;35738;49.890;5.930;2023-12-20T05:47:31;20.70;;;6.77;;
49840;SDS011;35738;49.890;5.930;2023-12-20T05:49:57;21.07;;;5.77;;
49840;SDS011;35738;49.890;5.930;2023-12-20T05:52:24;15.40;;;5.30;;
49840;SDS011;35738;49.890;5.930;2023-12-20T05:54:50;19.33;;;5.23;;
49840;SDS011;35738;49.890;5.930;2023-12-20T05:57:16;19.00;;;5.40;;
49840;SDS011;35738;49.890;5.930;2023-12-20T05:59:43;16.73;;;5.00;;
49840;SDS011;35738;49.890;5.930;2023-12-20T06:02:09;19.43;;;5.80;;
49840;SDS011;35738;49.890;5.930;2023-12-20T06:04:35;18.73;;;5.13;;
49840;SDS011;35738;49.890;5.930;2023-12-20T06:07:02;29.00;;;10.90;;
49840;SDS011;35738;49.890;5.930;2023-12-20T06:09:29;23.43;;;9.60;;
49840;SDS011;35738;49.890;5.930;2023-12-20T06:11:57;37.13;;;16.53;;
49840;SDS011;35738;49.890;5.930;2023-12-20T06:14:23;19.07;;;5.30;;
49840;SDS011;35738;49.890;5.930;2023-12-20T06:16:50;15.77;;;5.57;;
49840;SDS011;35738;49.890;5.930;2023-12-20T06:19:17;21.90;;;5.37;;
49840;SDS011;35738;49.890;5.930;2023-12-20T06:21:43;19.67;;;5.67;;
49840;SDS011;35738;49.890;5.930;2023-12-20T06:24:10;20.23;;;6.73;;
49840;SDS011;35738;49.890;5.930;2023-12-20T06:26:41;18.43;;;5.50;;
49840;SDS011;35738;49.890;5.930;2023-12-20T06:29:12;17.70;;;5.30;;
49840;SDS011;35738;49.890;5.930;2023-12-20T06:31:42;20.27;;;5.40;;
49840;SDS011;35738;49.890;5.930;2023-12-20T06:34:13;20.47;;;4.93;;
49840;SDS011;35738;49.890;5.930;2023-12-20T06:36:42;20.70;;;4.43;;
49840;SDS011;35738;49.890;5.930;2023-12-20T06:39:10;21.37;;;5.40;;
49840;SDS011;35738;49.890;5.930;2023-12-20T06:41:39;13.90;;;4.50;;
49840;SDS011;35738;49.890;5.930;2023-12-20T06:44:05;21.77;;;5.00;;
49840;SDS011;35738;49.890;5.930;2023-12-20T06:46:38;24.13;;;5.37;;
49840;SDS011;35738;49.890;5.930;2023-12-20T06:49:06;17.67;;;5.17;;
49840;SDS011;35738;49.890;5.930;2023-12-20T06:51:32;18.43;;;5.03;;
49840;SDS011;35738;49.890;5.930;2023-12-20T06:53:58;16.73;;;4.73;;
49840;SDS011;35738;49.890;5.930;2023-12-20T06:56:27;20.37;;;5.37;;
49840;SDS011;35738;49.890;5.930;2023-12-20T06:58:54;23.87;;;4.90;;
49840;SDS011;35738;49.890;5.930;2023-12-20T07:01:20;19.23;;;5.10;;
49840;SDS011;35738;49.890;5.930;2023-12-20T07:03:47;19.80;;;5.07;;
49840;SDS011;35738;49.890;5.930;2023-12-20T07:06:13;19.20;;;5.20;;
49840;SDS011;35738;49.890;5.930;2023-12-20T07:08:42;17.50;;;4.73;;
49840;SDS011;35738;49.890;5.930;2023-12-20T07:11:08;20.20;;;5.67;;
49840;SDS011;35738;49.890;5.930;2023-12-20T07:13:35;16.60;;;5.37;;
49840;SDS011;35738;49.890;5.930;2023-12-20T07:16:01;23.63;;;6.20;;
49840;SDS011;35738;49.890;5.930;2023-12-20T07:18:27;15.73;;;5.87;;
49840;SDS011;35738;49.890;5.930;2023-12-20T07:20:54;19.43;;;6.00;;
49840;SDS011;35738;49.890;5.930;2023-12-20T07:23:21;20.23;;;6.20;;
49840;SDS011;35738;49.890;5.930;2023-12-20T07:25:47;26.90;;;8.47;;
49840;SDS011;35738;49.890;5.930;2023-12-20T07:28:14;18.17;;;6.67;;
49840;SDS011;35738;49.890;5.930;2023-12-20T07:30:40;18.20;;;6.27;;
49840;SDS011;35738;49.890;5.930;2023-12-20T07:33:07;18.90;;;6.20;;
49840;SDS011;35738;49.890;5.930;2023-12-20T07:35:35;18.17;;;6.30;;
49840;SDS011;35738;49.890;5.930;2023-12-20T07:38:02;17.23;;;6.50;;
49840;SDS011;35738;49.890;5.930;2023-12-20T07:40:37;20.97;;;6.43;;
49840;SDS011;35738;49.890;5.930;2023-12-20T07:43:05;19.23;;;6.40;;
49840;SDS011;35738;49.890;5.930;2023-12-20T07:45:31;22.90;;;7.10;;
49840;SDS011;35738;49.890;5.930;2023-12-20T07:47:57;19.30;;;6.67;;
49840;SDS011;35738;49.890;5.930;2023-12-20T07:50:24;22.43;;;10.43;;
49840;SDS011;35738;49.890;5.930;2023-12-20T07:52:50;34.00;;;11.73;;
49840;SDS011;35738;49.890;5.930;2023-12-20T07:55:17;18.70;;;7.00;;
49840;SDS011;35738;49.890;5.930;2023-12-20T07:57:43;20.83;;;6.60;;
49840;SDS011;35738;49.890;5.930;2023-12-20T08:00:10;23.47;;;6.97;;
49840;SDS011;35738;49.890;5.930;2023-12-20T08:02:36;23.23;;;7.10;;
49840;SDS011;35738;49.890;5.930;2023-12-20T08:05:03;20.17;;;7.00;;
49840;SDS011;35738;49.890;5.930;2023-12-20T08:07:29;22.80;;;7.17;;
49840;SDS011;35738;49.890;5.930;2023-12-20T08:09:56;26.97;;;7.50;;
49840;SDS011;35738;49.890;5.930;2023-12-20T08:12:23;20.37;;;7.13;;
49840;SDS011;35738;49.890;5.930;2023-12-20T08:14:49;23.00;;;6.80;;
49840;SDS011;35738;49.890;5.930;2023-12-20T08:17:15;26.03;;;6.83;;
49840;SDS011;35738;49.890;5.930;2023-12-20T08:19:42;22.57;;;6.53;;
49840;SDS011;35738;49.890;5.930;2023-12-20T08:22:08;20.60;;;6.30;;
49840;SDS011;35738;49.890;5.930;2023-12-20T08:24:35;19.63;;;6.30;;
49840;SDS011;35738;49.890;5.930;2023-12-20T08:27:01;18.57;;;5.73;;
49840;SDS011;35738;49.890;5.930;2023-12-20T08:29:28;16.57;;;6.27;;
49840;SDS011;35738;49.890;5.930;2023-12-20T08:31:54;18.20;;;5.80;;
49840;SDS011;35738;49.890;5.930;2023-12-20T08:34:22;20.43;;;6.40;;
49840;SDS011;35738;49.890;5.930;2023-12-20T08:36:49;16.40;;;5.87;;
49840;SDS011;35738;49.890;5.930;2023-12-20T08:39:16;21.37;;;6.00;;
49840;SDS011;35738;49.890;5.930;2023-12-20T08:41:42;17.37;;;6.00;;
49840;SDS011;35738;49.890;5.930;2023-12-20T08:44:09;15.77;;;5.93;;
49840;SDS011;35738;49.890;5.930;2023-12-20T08:46:35;15.33;;;5.47;;
49840;SDS011;35738;49.890;5.930;2023-12-20T08:49:02;20.53;;;5.73;;
49840;SDS011;35738;49.890;5.930;2023-12-20T08:51:29;15.07;;;5.43;;
49840;SDS011;35738;49.890;5.930;2023-12-20T08:53:55;14.00;;;5.27;;
49840;SDS011;35738;49.890;5.930;2023-12-20T08:56:22;14.43;;;5.40;;
49840;SDS011;35738;49.890;5.930;2023-12-20T08:58:48;15.47;;;4.90;;
49840;SDS011;35738;49.890;5.930;2023-12-20T09:01:14;16.27;;;4.93;;
49840;SDS011;35738;49.890;5.930;2023-12-20T09:03:41;16.00;;;5.13;;
49840;SDS011;35738;49.890;5.930;2023-12-20T09:06:08;36.63;;;13.57;;
49840;SDS011;35738;49.890;5.930;2023-12-20T09:08:34;22.43;;;5.40;;
49840;SDS011;35738;49.890;5.930;2023-12-20T09:11:01;16.08;;;4.95;;
49840;SDS011;35738;49.890;5.930;2023-12-20T09:13:28;11.03;;;4.70;;
49840;SDS011;35738;49.890;5.930;2023-12-20T09:15:55;16.00;;;5.07;;
49840;SDS011;35738;49.890;5.930;2023-12-20T09:18:22;18.07;;;4.87;;
49840;SDS011;35738;49.890;5.930;2023-12-20T09:20:48;22.87;;;4.70;;
49840;SDS011;35738;49.890;5.930;2023-12-20T09:23:16;13.97;;;4.87;;
49840;SDS011;35738;49.890;5.930;2023-12-20T09:25:43;16.07;;;4.37;;
49840;SDS011;35738;49.890;5.930;2023-12-20T09:28:09;20.00;;;4.67;;
49840;SDS011;35738;49.890;5.930;2023-12-20T09:30:36;14.27;;;4.40;;
49840;SDS011;35738;49.890;5.930;2023-12-20T09:33:05;13.23;;;4.87;;
49840;SDS011;35738;49.890;5.930;2023-12-20T09:35:33;13.10;;;4.70;;
49840;SDS011;35738;49.890;5.930;2023-12-20T09:38:00;21.17;;;4.90;;
49840;SDS011;35738;49.890;5.930;2023-12-20T09:40:26;20.17;;;4.80;;
49840;SDS011;35738;49.890;5.930;2023-12-20T09:45:20;17.25;;;4.65;;
49840;SDS011;35738;49.890;5.930;2023-12-20T09:47:46;19.67;;;4.90;;
49840;SDS011;35738;49.890;5.930;2023-12-20T09:50:15;19.27;;;4.40;;
49840;SDS011;35738;49.890;5.930;2023-12-20T09:52:44;17.67;;;4.40;;
49840;SDS011;35738;49.890;5.930;2023-12-20T09:55:11;14.93;;;4.23;;
49840;SDS011;35738;49.890;5.930;2023-12-20T09:57:38;17.07;;;4.40;;
49840;SDS011;35738;49.890;5.930;2023-12-20T10:00:05;16.20;;;4.13;;
49840;SDS011;35738;49.890;5.930;2023-12-20T10:02:33;15.10;;;4.30;;
49840;SDS011;35738;49.890;5.930;2023-12-20T10:05:00;17.00;;;4.17;;
49840;SDS011;35738;49.890;5.930;2023-12-20T10:07:27;13.43;;;4.13;;
49840;SDS011;35738;49.890;5.930;2023-12-20T10:09:54;10.13;;;3.50;;
49840;SDS011;35738;49.890;5.930;2023-12-20T10:12:21;12.43;;;3.77;;
49840;SDS011;35738;49.890;5.930;2023-12-20T10:14:47;17.53;;;4.43;;
49840;SDS011;35738;49.890;5.930;2023-12-20T10:17:14;12.20;;;3.80;;
49840;SDS011;35738;49.890;5.930;2023-12-20T10:19:42;14.33;;;3.97;;
49840;SDS011;35738;49.890;5.930;2023-12-20T10:22:09;13.93;;;3.80;;
49840;SDS011;35738;49.890;5.930;2023-12-20T10:24:36;16.10;;;3.47;;
49840;SDS011;35738;49.890;5.930;2023-12-20T10:27:03;17.70;;;3.80;;
49840;SDS011;35738;49.890;5.930;2023-12-20T10:29:33;15.50;;;3.80;;
49840;SDS011;35738;49.890;5.930;2023-12-20T10:34:59;18.70;;;3.90;;
49840;SDS011;35738;49.890;5.930;2023-12-20T10:37:26;12.97;;;3.70;;
49840;SDS011;35738;49.890;5.930;2023-12-20T10:39:53;16.27;;;4.20;;
49840;SDS011;35738;49.890;5.930;2023-12-20T10:42:24;14.67;;;3.63;;
49840;SDS011;35738;49.890;5.930;2023-12-20T10:44:52;14.10;;;3.73;;
49840;SDS011;35738;49.890;5.930;2023-12-20T10:47:20;10.47;;;3.40;;
49840;SDS011;35738;49.890;5.930;2023-12-20T10:49:46;18.67;;;3.60;;
49840;SDS011;35738;49.890;5.930;2023-12-20T10:52:14;13.10;;;3.50;;
49840;SDS011;35738;49.890;5.930;2023-12-20T10:54:40;11.73;;;3.20;;
49840;SDS011;35738;49.890;5.930;2023-12-20T10:57:07;16.50;;;3.47;;
49840;SDS011;35738;49.890;5.930;2023-12-20T10:59:35;13.20;;;3.80;;
49840;SDS011;35738;49.890;5.930;2023-12-20T11:02:03;12.27;;;3.13;;
49840;SDS011;35738;49.890;5.930;2023-12-20T11:07:37;9.87;;;3.03;;
49840;SDS011;35738;49.890;5.930;2023-12-20T11:12:55;12.77;;;3.23;;
49840;SDS011;35738;49.890;5.930;2023-12-20T11:15:24;16.87;;;3.07;;
49840;SDS011;35738;49.890;5.930;2023-12-20T11:17:57;8.80;;;2.80;;
49840;SDS011;35738;49.890;5.930;2023-12-20T11:20:34;12.50;;;3.07;;
49840;SDS011;35738;49.890;5.930;2023-12-20T11:23:02;11.40;;;3.50;;
49840;SDS011;35738;49.890;5.930;2023-12-20T11:25:28;10.80;;;2.80;;
49840;SDS011;35738;49.890;5.930;2023-12-20T11:28:07;13.67;;;3.80;;
49840;SDS011;35738;49.890;5.930;2023-12-20T11:30:40;11.10;;;2.83;;
49840;SDS011;35738;49.890;5.930;2023-12-20T11:33:07;15.40;;;3.03;;
49840;SDS011;35738;49.890;5.930;2023-12-20T11:35:34;14.10;;;2.57;;
49840;SDS011;35738;49.890;5.930;2023-12-20T11:38:03;13.13;;;3.10;;
49840;SDS011;35738;49.890;5.930;2023-12-20T11:40:31;12.32;;;3.03;;
49840;SDS011;35738;49.890;5.930;2023-12-20T11:42:59;11.83;;;2.73;;
49840;SDS011;35738;49.890;5.930;2023-12-20T11:45:26;12.15;;;3.03;;
49840;SDS011;35738;49.890;5.930;2023-12-20T11:47:56;11.20;;;3.00;;
49840;SDS011;35738;49.890;5.930;2023-12-20T11:50:24;13.57;;;3.30;;
49840;SDS011;35738;49.890;5.930;2023-12-20T11:52:51;11.27;;;2.97;;
49840;SDS011;35738;49.890;5.930;2023-12-20T11:55:18;12.47;;;2.60;;
49840;SDS011;35738;49.890;5.930;2023-12-20T11:57:44;42.33;;;20.37;;
49840;SDS011;35738;49.890;5.930;2023-12-20T12:00:12;24.37;;;10.33;;
49840;SDS011;35738;49.890;5.930;2023-12-20T12:02:39;10.37;;;2.97;;
49840;SDS011;35738;49.890;5.930;2023-12-20T12:05:06;14.73;;;3.07;;
49840;SDS011;35738;49.890;5.930;2023-12-20T12:07:33;11.70;;;2.93;;
49840;SDS011;35738;49.890;5.930;2023-12-20T12:10:00;10.07;;;3.00;;
49840;SDS011;35738;49.890;5.930;2023-12-20T12:12:26;13.27;;;3.10;;
49840;SDS011;35738;49.890;5.930;2023-12-20T12:14:54;13.53;;;3.30;;
49840;SDS011;35738;49.890;5.930;2023-12-20T12:17:20;11.87;;;2.93;;
49840;SDS011;35738;49.890;5.930;2023-12-20T12:19:47;13.88;;;3.33;;
49840;SDS011;35738;49.890;5.930;2023-12-20T12:22:14;15.15;;;3.67;;
49840;SDS011;35738;49.890;5.930;2023-12-20T12:24:45;12.27;;;3.30;;
49840;SDS011;35738;49.890;5.930;2023-12-20T12:27:13;12.13;;;3.63;;
49840;SDS011;35738;49.890;5.930;2023-12-20T12:29:39;14.00;;;3.60;;
49840;SDS011;35738;49.890;5.930;2023-12-20T12:32:06;13.37;;;3.20;;
49840;SDS011;35738;49.890;5.930;2023-12-20T12:34:33;10.47;;;3.00;;
49840;SDS011;35738;49.890;5.930;2023-12-20T12:37:00;10.80;;;2.97;;
49840;SDS011;35738;49.890;5.930;2023-12-20T12:39:27;10.47;;;3.23;;
49840;SDS011;35738;49.890;5.930;2023-12-20T12:41:53;17.10;;;3.83;;
49840;SDS011;35738;49.890;5.930;2023-12-20T12:44:20;16.30;;;3.30;;
49840;SDS011;35738;49.890;5.930;2023-12-20T12:46:48;31.43;;;12.57;;
49840;SDS011;35738;49.890;5.930;2023-12-20T12:49:20;15.27;;;3.93;;
49840;SDS011;35738;49.890;5.930;2023-12-20T12:51:48;14.47;;;4.20;;
49840;SDS011;35738;49.890;5.930;2023-12-20T12:54:14;13.20;;;3.33;;
49840;SDS011;35738;49.890;5.930;2023-12-20T12:56:42;16.17;;;4.07;;
49840;SDS011;35738;49.890;5.930;2023-12-20T12:59:09;12.13;;;3.43;;
49840;SDS011;35738;49.890;5.930;2023-12-20T13:01:36;13.07;;;3.83;;
49840;SDS011;35738;49.890;5.930;2023-12-20T13:04:02;18.20;;;4.37;;
49840;SDS011;35738;49.890;5.930;2023-12-20T13:06:32;14.07;;;3.90;;
49840;SDS011;35738;49.890;5.930;2023-12-20T13:08:59;15.90;;;4.10;;
49840;SDS011;35738;49.890;5.930;2023-12-20T13:11:25;16.55;;;3.80;;
49840;SDS011;35738;49.890;5.930;2023-12-20T13:13:52;16.65;;;3.95;;
49840;SDS011;35738;49.890;5.930;2023-12-20T13:16:18;11.30;;;3.83;;
49840;SDS011;35738;49.890;5.930;2023-12-20T13:18:44;15.37;;;4.47;;
49840;SDS011;35738;49.890;5.930;2023-12-20T13:21:11;15.17;;;4.03;;
49840;SDS011;35738;49.890;5.930;2023-12-20T13:23:37;14.20;;;3.70;;
49840;SDS011;35738;49.890;5.930;2023-12-20T13:26:06;16.50;;;3.87;;
49840;SDS011;35738;49.890;5.930;2023-12-20T13:28:33;16.10;;;4.40;;
49840;SDS011;35738;49.890;5.930;2023-12-20T13:30:59;11.60;;;3.80;;
49840;SDS011;35738;49.890;5.930;2023-12-20T13:33:26;12.10;;;3.70;;
49840;SDS011;35738;49.890;5.930;2023-12-20T13:35:52;19.95;;;5.10;;
49840;SDS011;35738;49.890;5.930;2023-12-20T13:38:19;17.27;;;5.47;;
49840;SDS011;35738;49.890;5.930;2023-12-20T13:40:45;14.68;;;4.93;;
49840;SDS011;35738;49.890;5.930;2023-12-20T13:43:12;14.67;;;4.60;;
49840;SDS011;35738;49.890;5.930;2023-12-20T13:45:39;12.20;;;3.53;;
49840;SDS011;35738;49.890;5.930;2023-12-20T13:48:05;11.40;;;4.03;;
49840;SDS011;35738;49.890;5.930;2023-12-20T13:50:32;11.73;;;3.70;;
49840;SDS011;35738;49.890;5.930;2023-12-20T13:52:59;9.33;;;3.20;;
49840;SDS011;35738;49.890;5.930;2023-12-20T13:55:25;11.73;;;3.10;;
49840;SDS011;35738;49.890;5.930;2023-12-20T13:57:53;14.23;;;3.47;;
49840;SDS011;35738;49.890;5.930;2023-12-20T14:00:22;10.87;;;3.53;;
49840;SDS011;35738;49.890;5.930;2023-12-20T14:02:48;12.07;;;3.43;;
49840;SDS011;35738;49.890;5.930;2023-12-20T14:05:16;10.07;;;3.60;;
49840;SDS011;35738;49.890;5.930;2023-12-20T14:07:44;9.50;;;3.17;;
49840;SDS011;35738;49.890;5.930;2023-12-20T14:10:12;10.90;;;3.50;;
49840;SDS011;35738;49.890;5.930;2023-12-20T14:12:39;9.43;;;3.17;;
49840;SDS011;35738;49.890;5.930;2023-12-20T14:15:06;12.90;;;3.40;;
49840;SDS011;35738;49.890;5.930;2023-12-20T14:17:37;12.43;;;3.20;;
49840;SDS011;35738;49.890;5.930;2023-12-20T14:20:07;11.37;;;3.20;;
49840;SDS011;35738;49.890;5.930;2023-12-20T14:22:35;9.60;;;3.57;;
49840;SDS011;35738;49.890;5.930;2023-12-20T14:25:02;11.00;;;3.47;;
49840;SDS011;35738;49.890;5.930;2023-12-20T14:27:29;14.70;;;3.40;;
49840;SDS011;35738;49.890;5.930;2023-12-20T14:29:55;10.43;;;3.13;;
49840;SDS011;35738;49.890;5.930;2023-12-20T14:32:22;6.97;;;3.17;;
49840;SDS011;35738;49.890;5.930;2023-12-20T14:34:48;10.90;;;3.60;;
49840;SDS011;35738;49.890;5.930;2023-12-20T14:37:15;8.20;;;3.13;;
49840;SDS011;35738;49.890;5.930;2023-12-20T14:39:43;11.50;;;3.47;;
49840;SDS011;35738;49.890;5.930;2023-12-20T14:42:09;12.90;;;3.60;;
49840;SDS011;35738;49.890;5.930;2023-12-20T14:44:39;8.33;;;3.27;;
49840;SDS011;35738;49.890;5.930;2023-12-20T14:47:07;8.30;;;3.37;;